Time;durP1;ratioP1;P1;durP2;ratioP2;P2;SDS_P1;SDS_P2;PMS_P1;PMS_P2;Temp;Humidity;BMP_temperature;BMP_pressure;BME280_temperature;BME280_humidity;BME280_pressure;Samples;Min_cycle;Max_cycle;Signal;HPM_P1;HPM_P2
2023/06/25 00:00:20;;;;;;;7.03;6.50;;;;;;;16.81;100.00;93667.34;5053112;28;20111;-78
2023/06/25 00:02:46;;;;;;;6.78;6.18;;;;;;;16.78;100.00;93656.38;5068970;28;20021;-77
2023/06/25 00:05:11;;;;;;;6.72;6.13;;;;;;;16.79;100.00;93665.94;5056729;28;20035;-77
2023/06/25 00:07:38;;;;;;;7.55;6.78;;;;;;;16.78;100.00;93656.38;5068611;28;20515;-77
2023/06/25 00:10:04;;;;;;;7.45;6.75;;;;;;;16.72;100.00;93650.16;5071739;28;20028;-77
2023/06/25 00:12:29;;;;;;;8.98;7.32;;;;;;;16.64;100.00;93645.16;5071211;28;20020;-77
2023/06/25 00:14:55;;;;;;;6.85;6.25;;;;;;;16.65;100.00;93633.50;5072706;28;20024;-77
2023/06/25 00:17:21;;;;;;;6.95;6.35;;;;;;;16.66;100.00;93635.94;5071488;28;20035;-77
2023/06/25 00:19:46;;;;;;;7.50;6.47;;;;;;;16.67;100.00;93645.50;5065031;28;20052;-77
2023/06/25 00:22:12;;;;;;;7.07;6.47;;;;;;;16.64;100.00;93634.53;5067379;28;20073;-77
2023/06/25 00:24:38;;;;;;;7.85;6.60;;;;;;;16.59;100.00;93614.00;5069296;28;20031;-77
2023/06/25 00:27:04;;;;;;;6.88;6.38;;;;;;;16.55;100.00;93595.03;5039147;28;20100;-77
2023/06/25 00:29:30;;;;;;;10.93;6.63;;;;;;;16.52;100.00;93590.19;5071798;28;20017;-77
2023/06/25 00:31:55;;;;;;;7.40;6.80;;;;;;;16.51;100.00;93588.56;5068304;28;20044;-78
2023/06/25 00:34:21;;;;;;;14.98;6.97;;;;;;;16.50;100.00;93575.50;5055075;28;20020;-77
2023/06/25 00:36:52;;;;;;;6.63;6.13;;;;;;;16.49;100.00;93565.94;5075818;28;20028;-77
2023/06/25 00:39:20;;;;;;;10.77;6.82;;;;;;;16.47;100.00;93542.28;5064124;28;20016;-77
2023/06/25 00:41:47;;;;;;;6.35;5.90;;;;;;;16.40;100.00;93512.34;5071892;28;20294;-77
2023/06/25 00:44:13;;;;;;;7.28;6.57;;;;;;;16.36;100.00;93500.59;5064032;28;20016;-77
2023/06/25 00:46:39;;;;;;;6.90;6.30;;;;;;;16.35;100.00;93493.66;5068556;28;20115;-77
2023/06/25 00:49:07;;;;;;;7.60;6.28;;;;;;;16.31;100.00;93493.31;5060123;28;20068;-77
2023/06/25 00:51:35;;;;;;;8.77;6.55;;;;;;;16.29;100.00;93488.25;5080523;28;20046;-78
2023/06/25 00:54:05;;;;;;;7.35;6.65;;;;;;;16.28;100.00;93470.72;5071638;28;20028;-78
2023/06/25 00:56:34;;;;;;;7.55;6.80;;;;;;;16.28;100.00;93457.44;5077899;28;20023;-78
2023/06/25 00:59:02;;;;;;;8.13;6.90;;;;;;;16.24;100.00;93453.59;5052597;28;20020;-77
2023/06/25 01:01:45;;;;;;;7.10;6.40;;;;;;;16.21;100.00;93432.84;5059551;28;20021;-78
2023/06/25 01:04:27;;;;;;;7.65;6.82;;;;;;;16.17;100.00;93418.41;5067123;28;20020;-78
2023/06/25 01:06:57;;;;;;;8.10;6.97;;;;;;;16.14;100.00;93403.78;5068408;28;20025;-78
2023/06/25 01:09:24;;;;;;;7.32;6.72;;;;;;;16.12;100.00;93394.44;5044396;28;20477;-78
2023/06/25 01:12:19;;;;;;;8.52;7.72;;;;;;;16.09;100.00;93387.72;5072754;28;20109;-78
2023/06/25 01:14:44;;;;;;;7.68;7.00;;;;;;;16.07;100.00;93381.84;5053153;28;20032;-78
2023/06/25 01:17:10;;;;;;;7.82;6.95;;;;;;;16.11;100.00;93376.88;5053575;28;20406;-77
2023/06/25 01:19:36;;;;;;;7.82;7.13;;;;;;;16.12;100.00;93383.81;5052780;28;20048;-77
2023/06/25 01:22:04;;;;;;;7.75;7.13;;;;;;;16.13;100.00;93372.16;5068515;28;20039;-77
2023/06/25 01:24:30;;;;;;;7.32;6.70;;;;;;;16.13;100.00;93362.31;5065868;28;20021;-78
2023/06/25 01:26:59;;;;;;;7.55;6.93;;;;;;;16.14;100.00;93360.50;5078689;28;20099;-78
2023/06/25 01:29:25;;;;;;;7.65;6.95;;;;;;;16.16;100.00;93353.09;5074456;28;20052;-78
2023/06/25 01:31:51;;;;;;;7.25;6.60;;;;;;;16.13;100.00;93346.41;5068773;28;20093;-78
2023/06/25 01:34:21;;;;;;;8.05;7.25;;;;;;;16.10;100.00;93349.53;5074750;28;20096;-78
2023/06/25 01:36:49;;;;;;;7.57;6.65;;;;;;;16.08;100.00;93318.97;5071040;28;20028;-77
2023/06/25 01:39:18;;;;;;;9.40;7.00;;;;;;;16.00;100.00;93309.53;5072198;28;20147;-77
2023/06/25 01:41:44;;;;;;;6.53;6.03;;;;;;;15.95;100.00;93309.41;5074783;28;20083;-78
2023/06/25 01:44:28;;;;;;;7.60;6.90;;;;;;;15.94;100.00;93287.38;5070396;28;20476;-77
2023/06/25 01:46:54;;;;;;;7.68;7.07;;;;;;;15.91;100.00;93269.28;5072351;28;20024;-77
2023/06/25 01:49:20;;;;;;;7.30;6.60;;;;;;;15.90;100.00;93252.53;5075785;28;20488;-77
2023/06/25 01:51:45;;;;;;;7.20;6.60;;;;;;;15.93;100.00;93227.41;5076566;28;20082;-77
2023/06/25 01:54:11;;;;;;;7.22;6.72;;;;;;;15.92;100.00;93217.81;5067450;28;20025;-77
2023/06/25 01:56:36;;;;;;;7.43;6.88;;;;;;;15.86;100.00;93205.47;5073693;28;20025;-77
2023/06/25 01:59:02;;;;;;;7.75;7.07;;;;;;;15.81;100.00;93189.47;5074157;28;20448;-77
2023/06/25 02:01:27;;;;;;;7.53;6.93;;;;;;;15.81;100.00;93177.00;5072718;28;20031;-77
2023/06/25 02:03:53;;;;;;;8.05;6.40;;;;;;;15.80;100.00;93171.91;5066980;28;20020;-77
2023/06/25 02:06:19;;;;;;;7.28;6.68;;;;;;;15.80;100.00;93148.88;5054352;28;20453;-77
2023/06/25 02:08:44;;;;;;;8.02;7.25;;;;;;;15.78;100.00;93145.63;5076956;28;20028;-78
2023/06/25 02:11:09;;;;;;;6.80;6.30;;;;;;;15.69;100.00;93141.75;5065805;28;20035;-77
2023/06/25 02:13:35;;;;;;;7.22;6.63;;;;;;;15.66;100.00;93121.00;5069482;28;20477;-77
2023/06/25 02:16:04;;;;;;;7.43;6.72;;;;;;;15.67;100.00;93107.50;5074975;28;20058;-77
2023/06/25 02:18:31;;;;;;;7.95;7.25;;;;;;;15.65;100.00;93104.28;5069488;28;20191;-77
2023/06/25 02:20:56;;;;;;;7.22;6.60;;;;;;;15.68;100.00;93097.69;5064374;28;20078;-77
2023/06/25 02:23:22;;;;;;;7.60;7.00;;;;;;;15.69;100.00;93096.66;5067161;28;20041;-77
2023/06/25 02:25:49;;;;;;;7.90;7.15;;;;;;;15.66;100.00;93095.28;5074975;28;20019;-77
2023/06/25 02:28:15;;;;;;;8.65;6.53;;;;;;;15.60;100.00;93078.47;5068924;28;20024;-78
2023/06/25 02:30:40;;;;;;;7.45;6.75;;;;;;;15.58;100.00;93066.50;5069374;28;20024;-77
2023/06/25 02:33:06;;;;;;;8.55;7.75;;;;;;;15.57;100.00;93051.63;5057963;28;20050;-77
2023/06/25 02:35:31;;;;;;;7.38;6.78;;;;;;;15.53;100.00;93031.94;5077283;28;20028;-77
2023/06/25 02:37:56;;;;;;;7.55;6.80;;;;;;;15.55;100.00;93000.69;5075972;28;20056;-77
2023/06/25 02:40:22;;;;;;;7.13;6.53;;;;;;;15.54;100.00;92977.88;5066697;28;20381;-77
2023/06/25 02:42:47;;;;;;;8.50;7.70;;;;;;;15.44;100.00;92958.09;5062294;28;20035;-77
2023/06/25 02:45:13;;;;;;;7.72;7.00;;;;;;;15.40;100.00;92932.31;5062803;28;20437;-77
2023/06/25 02:47:38;;;;;;;7.82;6.72;;;;;;;15.43;100.00;92910.59;5062285;28;20451;-77
2023/06/25 02:50:04;;;;;;;7.78;7.07;;;;;;;15.41;100.00;92900.25;5065432;28;20056;-77
2023/06/25 02:52:30;;;;;;;7.68;6.97;;;;;;;15.41;100.00;92886.19;5073815;28;20307;-77
2023/06/25 02:54:55;;;;;;;8.02;7.32;;;;;;;15.40;100.00;92868.69;5073072;28;20085;-77
2023/06/25 02:57:23;;;;;;;7.25;6.65;;;;;;;15.33;100.00;92880.25;5066956;28;20028;-77
2023/06/25 02:59:49;;;;;;;9.20;6.78;;;;;;;15.29;100.00;92849.97;5073450;28;20080;-77
2023/06/25 03:02:14;;;;;;;7.50;6.90;;;;;;;15.29;100.00;92826.13;5071959;28;20032;-77
2023/06/25 03:04:39;;;;;;;10.23;6.80;;;;;;;15.31;100.00;92809.97;5071120;28;20474;-77
2023/06/25 03:07:05;;;;;;;8.02;7.15;;;;;;;15.29;100.00;92796.16;5071295;28;20108;-77
2023/06/25 03:09:31;;;;;;;8.20;7.32;;;;;;;15.29;100.00;92794.31;5086546;28;20085;-77
2023/06/25 03:11:56;;;;;;;7.75;6.82;;;;;;;15.31;100.00;92771.03;5081227;28;20024;-77
2023/06/25 03:14:22;;;;;;;8.82;7.95;;;;;;;15.34;100.00;92775.03;5080567;28;20024;-77
2023/06/25 03:16:47;;;;;;;7.45;6.90;;;;;;;15.35;100.00;92778.50;5057187;28;20028;-77
2023/06/25 03:19:13;;;;;;;7.97;7.28;;;;;;;15.34;100.00;92777.66;5074259;28;20044;-77
2023/06/25 03:21:38;;;;;;;8.00;7.30;;;;;;;15.29;100.00;92777.59;5074536;28;20035;-77
2023/06/25 03:24:04;;;;;;;7.88;7.20;;;;;;;15.25;100.00;92740.22;5074856;28;20033;-77
2023/06/25 03:26:29;;;;;;;7.38;6.88;;;;;;;15.25;100.00;92731.44;5079482;28;20039;-77
2023/06/25 03:28:56;;;;;;;8.95;7.72;;;;;;;15.25;100.00;92710.25;5081223;28;20032;-77
2023/06/25 03:31:21;;;;;;;9.90;7.88;;;;;;;15.27;100.00;92700.19;5078471;28;20103;-77
2023/06/25 03:33:47;;;;;;;8.25;7.43;;;;;;;15.24;100.00;92692.72;5073286;28;20048;-77
2023/06/25 03:36:12;;;;;;;7.82;7.00;;;;;;;15.20;100.00;92676.50;5075633;28;20420;-77
2023/06/25 03:38:38;;;;;;;7.95;7.30;;;;;;;15.14;100.00;92656.31;5055955;28;20020;-77
2023/06/25 03:41:03;;;;;;;7.82;7.05;;;;;;;15.12;100.00;92639.84;5074811;28;20032;-77
2023/06/25 03:43:28;;;;;;;7.70;7.03;;;;;;;15.09;100.00;92619.16;5074569;28;20067;-77
2023/06/25 03:45:54;;;;;;;7.47;6.97;;;;;;;15.08;100.00;92605.09;5075095;28;20028;-77
2023/06/25 03:48:20;;;;;;;8.05;7.45;;;;;;;15.08;100.00;92589.19;5082467;28;20407;-77
2023/06/25 03:50:45;;;;;;;8.25;7.57;;;;;;;15.02;100.00;92574.28;5056551;28;20052;-76
2023/06/25 03:53:11;;;;;;;10.63;7.82;;;;;;;15.00;100.00;92542.72;5064491;28;20024;-76
2023/06/25 03:55:36;;;;;;;7.70;6.97;;;;;;;15.00;100.00;92518.88;5075878;28;20016;-77
2023/06/25 03:58:01;;;;;;;7.82;6.97;;;;;;;15.03;100.00;92509.66;5075651;28;20031;-76
2023/06/25 04:00:27;;;;;;;8.60;7.90;;;;;;;15.04;100.00;92490.06;5075859;28;20054;-77
2023/06/25 04:02:52;;;;;;;8.48;7.60;;;;;;;15.04;100.00;92472.34;5070329;28;20017;-77
2023/06/25 04:05:18;;;;;;;8.40;7.22;;;;;;;15.03;100.00;92456.69;5068214;28;20025;-77
2023/06/25 04:07:43;;;;;;;9.95;7.63;;;;;;;14.95;100.00;92455.28;5076836;28;20487;-77
2023/06/25 04:10:10;;;;;;;8.05;7.28;;;;;;;14.92;100.00;92415.22;5074779;28;20029;-77
2023/06/25 04:12:35;;;;;;;7.53;6.82;;;;;;;14.94;100.00;92384.81;5056301;28;20119;-77
2023/06/25 04:15:01;;;;;;;7.88;7.28;;;;;;;14.96;100.00;92342.19;5074312;28;20099;-77
2023/06/25 04:17:27;;;;;;;7.82;7.13;;;;;;;14.93;100.00;92313.56;5074427;28;20040;-77
2023/06/25 04:19:52;;;;;;;7.88;7.10;;;;;;;14.93;100.00;92282.56;5081172;28;20075;-77
2023/06/25 04:22:17;;;;;;;7.88;7.20;;;;;;;14.99;100.00;92254.28;5079690;28;20028;-77
2023/06/25 04:24:43;;;;;;;8.63;7.72;;;;;;;15.02;100.00;92227.28;5068535;28;20017;-77
2023/06/25 04:27:08;;;;;;;8.18;7.57;;;;;;;15.02;100.00;92198.94;5078477;28;20020;-76
2023/06/25 04:29:34;;;;;;;9.02;7.88;;;;;;;15.00;100.00;92176.41;5073677;28;20028;-77
2023/06/25 04:32:01;;;;;;;11.07;8.30;;;;;;;15.05;100.00;92152.59;5064574;28;20032;-77
2023/06/25 04:34:27;;;;;;;14.93;7.43;;;;;;;15.04;100.00;92119.22;5073384;28;20040;-76
2023/06/25 04:36:52;;;;;;;9.65;8.13;;;;;;;15.03;100.00;92096.44;5073751;28;20028;-77
2023/06/25 04:39:18;;;;;;;9.15;7.45;;;;;;;15.03;100.00;92085.84;5069043;28;20029;-77
2023/06/25 04:41:43;;;;;;;11.18;7.63;;;;;;;15.09;100.00;92071.56;5067758;28;20115;-77
2023/06/25 04:44:09;;;;;;;14.38;8.05;;;;;;;15.11;100.00;92050.13;5077027;28;20048;-77
2023/06/25 04:46:34;;;;;;;8.95;7.97;;;;;;;15.12;100.00;92014.63;5079032;28;20475;-77
2023/06/25 04:48:59;;;;;;;9.15;8.02;;;;;;;15.16;100.00;92016.50;5090783;28;20085;-77
2023/06/25 04:51:25;;;;;;;8.13;7.43;;;;;;;15.22;100.00;92005.91;5077444;28;20055;-77
2023/06/25 04:53:50;;;;;;;8.55;7.80;;;;;;;15.26;100.00;91996.38;5077450;28;20111;-77
2023/06/25 04:56:16;;;;;;;8.55;7.75;;;;;;;15.28;100.00;91981.03;5086633;28;20034;-77
2023/06/25 04:58:41;;;;;;;7.72;7.03;;;;;;;15.31;100.00;91981.31;5064039;28;20036;-77
2023/06/25 05:01:07;;;;;;;7.78;7.13;;;;;;;15.32;100.00;91982.09;5077891;28;20024;-77
2023/06/25 05:03:32;;;;;;;9.32;8.38;;;;;;;15.22;100.00;91984.72;5076677;28;20092;-77
2023/06/25 05:05:58;;;;;;;8.57;7.78;;;;;;;15.29;100.00;91966.72;5078475;28;20135;-77
2023/06/25 05:08:23;;;;;;;8.10;7.40;;;;;;;15.41;100.00;91945.25;5088270;28;20066;-77
2023/06/25 05:10:48;;;;;;;8.55;7.88;;;;;;;15.52;100.00;91903.66;5077730;28;20097;-77
2023/06/25 05:13:14;;;;;;;9.85;8.00;;;;;;;15.64;100.00;91877.69;5062553;28;20105;-77
2023/06/25 05:15:41;;;;;;;9.25;8.18;;;;;;;15.75;100.00;91858.03;5085546;28;20036;-78
2023/06/25 05:18:10;;;;;;;9.65;8.75;;;;;;;15.83;100.00;91851.41;5077224;28;20024;-77
2023/06/25 05:20:36;;;;;;;10.63;9.75;;;;;;;15.94;100.00;91876.06;5077240;28;20041;-77
2023/06/25 05:23:03;;;;;;;13.25;12.10;;;;;;;16.06;100.00;91881.09;5079659;28;20047;-77
2023/06/25 05:25:29;;;;;;;15.75;14.45;;;;;;;16.15;100.00;91908.66;5076987;28;20103;-76
2023/06/25 05:27:54;;;;;;;15.05;13.63;;;;;;;16.30;100.00;91946.81;5082348;28;20060;-77
2023/06/25 05:30:19;;;;;;;15.45;14.05;;;;;;;16.42;100.00;91976.53;5073989;28;20042;-77
2023/06/25 05:32:45;;;;;;;17.30;11.82;;;;;;;16.53;100.00;92005.69;5078293;28;20052;-77
2023/06/25 05:35:10;;;;;;;16.55;15.05;;;;;;;16.64;100.00;92031.19;5077236;28;20029;-77
2023/06/25 05:37:35;;;;;;;20.65;18.65;;;;;;;16.74;100.00;92070.19;5076007;28;20139;-77
2023/06/25 05:40:02;;;;;;;20.08;18.35;;;;;;;16.84;100.00;92110.00;5083170;28;20032;-77
2023/06/25 05:42:28;;;;;;;18.67;17.08;;;;;;;16.97;100.00;92156.47;5084389;28;20027;-77
2023/06/25 05:44:54;;;;;;;13.65;12.13;;;;;;;17.12;100.00;92197.41;5078165;28;20028;-77
2023/06/25 05:47:19;;;;;;;12.45;11.35;;;;;;;17.21;100.00;92235.66;5082939;28;20036;-77
2023/06/25 05:49:45;;;;;;;15.10;13.75;;;;;;;17.36;100.00;92253.47;5076963;28;20024;-77
2023/06/25 05:52:10;;;;;;;17.50;15.70;;;;;;;17.49;100.00;92296.50;5076672;28;20384;-77
2023/06/25 05:54:36;;;;;;;14.38;13.13;;;;;;;17.59;100.00;92350.50;5076699;28;20024;-77
2023/06/25 05:57:01;;;;;;;12.77;11.45;;;;;;;17.70;100.00;92420.44;5070394;28;20439;-76
2023/06/25 05:59:26;;;;;;;8.95;8.15;;;;;;;17.81;100.00;92486.97;5052558;28;20063;-77
2023/06/25 06:01:52;;;;;;;9.75;8.95;;;;;;;17.92;100.00;92549.75;5071300;28;20041;-77
2023/06/25 06:04:17;;;;;;;9.98;8.68;;;;;;;18.03;100.00;92609.16;5083688;28;20274;-77
2023/06/25 06:06:43;;;;;;;9.57;8.68;;;;;;;18.15;100.00;92673.59;5076463;28;20029;-77
2023/06/25 06:09:08;;;;;;;11.65;10.55;;;;;;;18.25;100.00;92736.72;5076440;28;20489;-77
2023/06/25 06:11:33;;;;;;;13.85;11.70;;;;;;;18.33;100.00;92776.16;5077348;28;20515;-77
2023/06/25 06:13:59;;;;;;;11.73;10.70;;;;;;;18.40;100.00;92786.56;5082240;28;20078;-77
2023/06/25 06:16:24;;;;;;;9.05;8.05;;;;;;;18.42;100.00;92834.22;5076287;28;20113;-77
2023/06/25 06:18:49;;;;;;;8.70;7.93;;;;;;;18.55;100.00;92887.03;5081530;28;20064;-77
2023/06/25 06:21:15;;;;;;;8.80;7.95;;;;;;;18.68;100.00;92931.03;5085006;28;20074;-77
2023/06/25 06:23:40;;;;;;;9.25;8.55;;;;;;;18.75;100.00;93000.88;5070334;28;20021;-77
2023/06/25 06:26:06;;;;;;;8.65;7.95;;;;;;;18.81;100.00;93040.91;5075259;28;20025;-77
2023/06/25 06:28:31;;;;;;;8.95;7.13;;;;;;;18.80;100.00;93093.38;5058427;28;20382;-77
2023/06/25 06:30:56;;;;;;;8.48;7.18;;;;;;;18.87;100.00;93103.81;5087599;28;20016;-78
2023/06/25 06:33:22;;;;;;;7.70;7.03;;;;;;;19.10;100.00;93115.19;5083871;28;20538;-77
2023/06/25 06:35:47;;;;;;;7.53;6.93;;;;;;;19.33;100.00;93151.28;5085391;28;20321;-77
2023/06/25 06:38:13;;;;;;;8.65;7.00;;;;;;;19.62;100.00;93193.59;5062000;28;20096;-78
2023/06/25 06:40:38;;;;;;;7.72;7.05;;;;;;;19.89;100.00;93249.53;5069187;28;20036;-78
2023/06/25 06:43:03;;;;;;;7.35;6.65;;;;;;;20.20;100.00;93264.09;5076077;28;20082;-78
2023/06/25 06:45:29;;;;;;;7.70;6.63;;;;;;;20.53;100.00;93286.91;5074633;28;20128;-78
2023/06/25 06:47:54;;;;;;;7.53;6.82;;;;;;;20.61;100.00;93318.47;5076221;28;20063;-79
2023/06/25 06:50:20;;;;;;;6.70;6.15;;;;;;;20.83;100.00;93354.91;5075234;28;20065;-78
2023/06/25 06:52:45;;;;;;;6.63;6.13;;;;;;;21.23;100.00;93367.84;5074387;28;20109;-77
2023/06/25 06:55:10;;;;;;;7.93;7.28;;;;;;;21.37;100.00;93421.63;5075838;28;20081;-78
2023/06/25 06:57:36;;;;;;;7.35;6.65;;;;;;;21.57;100.00;93455.69;5065588;28;20024;-78
2023/06/25 07:00:03;;;;;;;7.53;6.72;;;;;;;21.75;100.00;93518.66;5076261;28;20035;-79
2023/06/25 07:02:29;;;;;;;6.63;6.03;;;;;;;21.63;100.00;93567.06;5064850;28;20480;-78
2023/06/25 07:04:54;;;;;;;6.70;6.10;;;;;;;21.54;100.00;93614.13;5074206;28;20047;-78
2023/06/25 07:07:20;;;;;;;7.05;6.47;;;;;;;21.75;100.00;93598.97;5075089;28;20488;-79
2023/06/25 07:09:50;;;;;;;6.60;5.97;;;;;;;22.19;100.00;93595.03;5078645;28;20499;-78
2023/06/25 07:12:16;;;;;;;7.35;5.90;;;;;;;22.74;100.00;93640.16;5067269;28;20047;-78
2023/06/25 07:14:42;;;;;;;7.80;7.15;;;;;;;23.34;100.00;93695.13;5057884;28;20054;-78
2023/06/25 07:17:07;;;;;;;7.43;6.82;;;;;;;23.72;100.00;93741.25;5067135;28;20054;-75
2023/06/25 07:19:32;;;;;;;6.57;5.97;;;;;;;24.09;100.00;93827.97;5061672;28;20047;-75
2023/06/25 07:21:58;;;;;;;6.97;6.28;;;;;;;24.32;100.00;93838.13;5055248;28;20036;-76
2023/06/25 07:24:23;;;;;;;6.65;6.07;;;;;;;24.45;100.00;93938.91;5074440;28;20020;-75
2023/06/25 07:26:48;;;;;;;6.82;6.32;;;;;;;24.57;100.00;93919.78;5079450;28;20107;-75
2023/06/25 07:29:14;;;;;;;6.32;5.82;;;;;;;24.81;100.00;93913.81;5064137;28;20021;-76
2023/06/25 07:31:40;;;;;;;6.15;5.60;;;;;;;24.85;100.00;94010.94;5074375;28;20024;-75
2023/06/25 07:34:05;;;;;;;6.35;5.88;;;;;;;25.01;100.00;93995.56;5072967;28;20458;-76
2023/06/25 07:36:31;;;;;;;6.55;5.90;;;;;;;25.25;100.00;93992.22;5079444;28;20124;-76
2023/06/25 07:38:57;;;;;;;6.07;5.57;;;;;;;25.62;100.00;93995.56;5068311;28;20029;-75
2023/06/25 07:41:23;;;;;;;6.30;5.80;;;;;;;25.83;100.00;94044.78;5073587;28;20102;-75
2023/06/25 07:43:48;;;;;;;8.57;5.90;;;;;;;25.82;100.00;94046.66;5070276;28;20024;-77
2023/06/25 07:46:16;;;;;;;6.28;5.78;;;;;;;26.28;100.00;94091.44;5048096;28;20029;-75
2023/06/25 07:48:42;;;;;;;5.90;5.50;;;;;;;26.49;100.00;94096.69;5068056;28;20021;-84
2023/06/25 07:51:07;;;;;;;5.97;5.35;;;;;;;26.78;100.00;94120.19;5069480;28;20096;-77
2023/06/25 07:53:33;;;;;;;5.75;5.18;;;;;;;26.34;100.00;94243.25;5063165;28;20036;-84
2023/06/25 07:55:58;;;;;;;5.70;5.30;;;;;;;26.49;100.00;94233.44;5070678;28;20103;-77
2023/06/25 07:58:23;;;;;;;6.20;5.63;;;;;;;26.46;100.00;94224.03;5070323;28;20029;-78
2023/06/25 08:00:49;;;;;;;5.53;5.13;;;;;;;26.77;100.00;94201.44;5078039;28;20070;-80
2023/06/25 08:03:14;;;;;;;5.50;5.10;;;;;;;26.66;100.00;94243.91;5068749;28;20027;-80
2023/06/25 08:05:39;;;;;;;6.03;5.53;;;;;;;26.65;100.00;94280.06;5074926;28;20017;-79
2023/06/25 08:08:05;;;;;;;5.43;4.93;;;;;;;26.41;100.00;94318.47;5078557;28;20051;-76
2023/06/25 08:10:30;;;;;;;5.40;5.00;;;;;;;26.62;100.00;94315.69;5074390;28;20028;-79
2023/06/25 08:12:56;;;;;;;5.65;5.15;;;;;;;26.94;100.00;94353.06;5073766;28;20020;-79
2023/06/25 08:15:21;;;;;;;5.47;4.97;;;;;;;27.10;100.00;94361.91;5079302;28;20127;-75
2023/06/25 08:17:47;;;;;;;5.57;5.18;;;;;;;26.68;100.00;94369.34;5075062;28;20039;-74
2023/06/25 08:20:13;;;;;;;6.10;4.80;;;;;;;26.46;100.00;94375.13;5077265;28;20044;-81
2023/06/25 08:22:38;;;;;;;5.57;5.10;;;;;;;26.74;100.00;94364.75;5059475;28;20546;-80
2023/06/25 08:25:17;;;;;;;5.47;4.97;;;;;;;26.85;100.00;94387.13;5060111;28;20637;-82
2023/06/25 08:27:43;;;;;;;5.22;4.82;;;;;;;27.28;100.00;94351.50;5067774;28;20022;-70
2023/06/25 08:30:09;;;;;;;4.78;4.47;;;;;;;27.85;100.00;94343.00;5096830;28;20099;-72
2023/06/25 08:32:34;;;;;;;5.22;4.82;;;;;;;28.08;100.00;94394.72;5059574;28;20028;-71
2023/06/25 08:35:03;;;;;;;5.38;4.97;;;;;;;28.22;100.00;94392.16;5070815;28;20114;-72
2023/06/25 08:37:28;;;;;;;5.22;4.68;;;;;;;28.99;100.00;94379.69;5091412;28;20541;-71
2023/06/25 08:39:54;;;;;;;5.38;4.97;;;;;;;28.63;100.00;94334.06;5075278;28;20395;-71
2023/06/25 08:42:19;;;;;;;4.97;4.57;;;;;;;28.35;100.00;94380.69;5077550;28;20024;-71
2023/06/25 08:44:45;;;;;;;6.25;4.80;;;;;;;28.02;100.00;94415.56;5077741;28;20024;-70
2023/06/25 08:47:14;;;;;;;5.32;4.90;;;;;;;27.84;100.00;94412.47;5080634;28;20385;-71
2023/06/25 08:49:42;;;;;;;5.15;4.75;;;;;;;27.52;100.00;94340.84;5082866;28;20020;-70
2023/06/25 08:52:09;;;;;;;6.78;4.88;;;;;;;27.85;100.00;94315.97;5076613;28;20025;-69
2023/06/25 08:54:34;;;;;;;4.90;4.50;;;;;;;28.23;100.00;94380.25;5077870;28;20033;-71
2023/06/25 08:57:00;;;;;;;5.22;4.93;;;;;;;28.25;100.00;94324.78;5088478;28;20024;-71
2023/06/25 08:59:25;;;;;;;4.80;4.50;;;;;;;28.41;100.00;94344.34;5078254;28;20449;-72
2023/06/25 09:01:51;;;;;;;5.38;4.97;;;;;;;28.26;100.00;94344.50;5081987;28;20073;-71
2023/06/25 09:04:16;;;;;;;5.13;4.55;;;;;;;28.51;100.00;94237.88;5087139;28;20361;-71
2023/06/25 09:06:42;;;;;;;5.15;4.78;;;;;;;28.65;100.00;94326.50;5077013;28;20047;-70
2023/06/25 09:09:10;;;;;;;4.80;4.43;;;;;;;28.75;100.00;94385.91;5081341;28;20020;-69
2023/06/25 09:11:42;;;;;;;4.80;4.40;;;;;;;28.90;100.00;94311.81;5059207;28;20056;-71
2023/06/25 09:14:08;;;;;;;5.88;4.90;;;;;;;28.85;100.00;94326.25;5073483;28;20123;-71
2023/06/25 09:16:45;;;;;;;4.70;4.40;;;;;;;29.22;100.00;94358.25;5074842;28;20080;-70
2023/06/25 09:19:20;;;;;;;5.18;4.47;;;;;;;29.35;100.00;94316.88;5076825;28;20044;-71
2023/06/25 09:21:46;;;;;;;5.03;4.38;;;;;;;29.79;100.00;94335.72;5076484;28;20055;-72
2023/06/25 09:24:19;;;;;;;5.32;4.80;;;;;;;29.77;100.00;94351.47;5077153;28;20022;-72
2023/06/25 09:26:54;;;;;;;5.80;4.78;;;;;;;29.81;100.00;94371.47;5081272;28;20013;-70
2023/06/25 09:29:21;;;;;;;6.32;4.00;;;;;;;30.04;100.00;94396.09;5077916;28;20028;-72
2023/06/25 09:31:48;;;;;;;5.43;4.95;;;;;;;29.88;100.00;94388.97;5080260;28;20131;-72
2023/06/25 09:34:15;;;;;;;4.57;4.28;;;;;;;29.63;100.00;94414.59;5076349;28;20032;-71
2023/06/25 09:36:41;;;;;;;5.43;5.00;;;;;;;29.54;100.00;94389.25;5076406;28;20020;-71
2023/06/25 09:39:09;;;;;;;5.38;4.97;;;;;;;29.58;100.00;94346.91;5077467;28;20019;-71
2023/06/25 09:41:37;;;;;;;6.30;5.30;;;;;;;29.49;100.00;94364.91;5076275;28;20090;-71
2023/06/25 09:44:04;;;;;;;5.68;5.15;;;;;;;29.71;100.00;94335.28;5065447;28;20017;-70
2023/06/25 09:46:35;;;;;;;4.63;4.20;;;;;;;29.76;100.00;94377.78;5079593;28;20016;-73
2023/06/25 09:49:01;;;;;;;7.22;4.82;;;;;;;29.69;100.00;94401.75;5085104;28;20040;-71
2023/06/25 09:51:33;;;;;;;5.53;5.13;;;;;;;29.80;100.00;94369.88;5076910;28;20020;-72
2023/06/25 09:54:03;;;;;;;5.15;4.65;;;;;;;30.08;100.00;94372.66;5076262;28;20040;-71
2023/06/25 09:56:31;;;;;;;5.47;4.95;;;;;;;30.19;100.00;94389.56;5078132;28;20158;-71
2023/06/25 09:58:57;;;;;;;5.45;4.80;;;;;;;29.92;100.00;94345.00;5064003;28;20606;-71
2023/06/25 10:01:23;;;;;;;5.85;4.65;;;;;;;29.77;100.00;94354.19;5076609;28;20401;-70
2023/06/25 10:03:48;;;;;;;5.30;4.80;;;;;;;29.85;100.00;94361.63;5075734;28;20111;-71
2023/06/25 10:06:14;;;;;;;5.10;4.70;;;;;;;30.15;100.00;94356.81;5076839;28;20103;-70
2023/06/25 10:08:39;;;;;;;5.50;5.00;;;;;;;30.24;100.00;94319.75;5075407;28;20768;-71
2023/06/25 10:11:05;;;;;;;6.18;5.35;;;;;;;30.41;100.00;94324.56;5074537;28;20028;-72
2023/06/25 10:13:32;;;;;;;5.63;4.45;;;;;;;30.58;100.00;94351.09;5082456;28;20055;-73
2023/06/25 10:15:59;;;;;;;5.22;4.82;;;;;;;30.36;100.00;94378.94;5065120;28;20035;-70
2023/06/25 10:18:25;;;;;;;6.55;5.95;;;;;;;29.78;100.00;94307.00;5076106;28;20035;-70
2023/06/25 10:20:55;;;;;;;5.00;4.70;;;;;;;30.33;100.00;94319.84;5089012;28;20071;-73
2023/06/25 10:23:24;;;;;;;5.07;4.57;;;;;;;30.43;100.00;94373.13;5076120;28;20119;-72
2023/06/25 10:25:58;;;;;;;4.88;4.47;;;;;;;30.43;100.00;94370.41;5089695;28;20078;-72
2023/06/25 10:28:31;;;;;;;4.97;4.67;;;;;;;30.52;100.00;94371.31;5070992;28;20459;-71
2023/06/25 10:31:00;;;;;;;5.25;4.85;;;;;;;30.53;100.00;94353.91;5074627;28;20096;-70
2023/06/25 10:33:30;;;;;;;5.13;4.72;;;;;;;30.13;100.00;94378.81;5075543;28;20073;-70
2023/06/25 10:35:58;;;;;;;4.80;4.50;;;;;;;30.37;100.00;94339.03;5076004;28;20033;-70
2023/06/25 10:38:26;;;;;;;5.20;4.70;;;;;;;30.58;100.00;94380.19;5078470;28;20032;-71
2023/06/25 10:40:52;;;;;;;4.93;4.38;;;;;;;30.02;100.00;94348.34;5074942;28;20480;-71
2023/06/25 10:43:19;;;;;;;5.47;4.97;;;;;;;30.23;100.00;94314.59;5060906;28;20589;-71
2023/06/25 10:45:52;;;;;;;5.68;5.18;;;;;;;30.33;100.00;94295.41;5077160;28;20031;-74
2023/06/25 10:48:19;;;;;;;5.07;4.68;;;;;;;30.58;100.00;94367.38;5071080;28;20549;-73
2023/06/25 10:50:45;;;;;;;4.65;4.35;;;;;;;30.65;100.00;94386.03;5073681;28;20036;-74
2023/06/25 10:53:13;;;;;;;4.63;4.32;;;;;;;30.94;100.00;94387.59;5072653;28;20088;-73
2023/06/25 10:55:43;;;;;;;5.70;5.30;;;;;;;31.33;100.00;94341.97;5083670;28;20188;-73
2023/06/25 10:58:09;;;;;;;5.30;4.90;;;;;;;31.05;100.00;94399.06;5079852;28;20056;-71
2023/06/25 11:00:35;;;;;;;4.57;4.28;;;;;;;30.70;100.00;94349.81;5075066;28;20032;-70
2023/06/25 11:03:01;;;;;;;4.70;4.32;;;;;;;30.53;100.00;94310.47;5072851;28;20102;-71
2023/06/25 11:05:41;;;;;;;5.53;4.80;;;;;;;30.66;100.00;94346.13;5075161;28;20029;-68
2023/06/25 11:08:10;;;;;;;5.45;5.00;;;;;;;30.84;100.00;94420.44;5076506;28;20024;-70
2023/06/25 11:10:37;;;;;;;4.88;4.57;;;;;;;30.75;100.00;94382.31;5074616;28;20083;-72
2023/06/25 11:13:03;;;;;;;4.93;4.63;;;;;;;30.93;100.00;94284.69;5066207;28;20032;-72
2023/06/25 11:15:35;;;;;;;5.18;4.38;;;;;;;30.62;100.00;94321.47;5066481;28;20042;-72
2023/06/25 11:18:01;;;;;;;4.85;4.45;;;;;;;31.18;100.00;94287.94;5076713;28;20025;-73
2023/06/25 11:20:27;;;;;;;6.25;4.28;;;;;;;31.65;100.00;94391.81;5071229;28;20045;-72